createdAt,value
2022-11-16T00:01:06.098Z,37.03
2022-11-16T00:04:12.589Z,36.37
2022-11-16T00:07:15.771Z,36.80
2022-11-16T00:10:21.454Z,36.43
2022-11-16T00:13:24.705Z,38.10
2022-11-16T00:16:27.733Z,36.20
2022-11-16T00:19:32.546Z,35.27
2022-11-16T00:22:36.005Z,34.87
2022-11-16T00:25:39.063Z,35.80
2022-11-16T00:28:42.154Z,35.30
2022-11-16T00:31:45.930Z,34.57
2022-11-16T00:34:50.471Z,34.10
2022-11-16T00:37:53.690Z,35.30
2022-11-16T00:40:56.775Z,33.40
2022-11-16T00:43:59.789Z,34.10
2022-11-16T00:47:02.961Z,33.73
2022-11-16T00:50:08.134Z,33.57
2022-11-16T00:53:14.601Z,33.20
2022-11-16T00:56:17.968Z,33.50
2022-11-16T00:59:21.216Z,33.10
2022-11-16T01:02:24.861Z,32.87
2022-11-16T01:05:29.287Z,32.50
2022-11-16T01:08:32.929Z,33.47
2022-11-16T01:11:53.638Z,32.60
2022-11-16T01:14:57.191Z,31.97
2022-11-16T01:18:00.433Z,32.67
2022-11-16T01:21:07.618Z,31.20
2022-11-16T01:24:10.884Z,30.90
2022-11-16T01:27:14.024Z,31.20
2022-11-16T01:30:17.450Z,30.30
2022-11-16T01:33:20.567Z,29.90
2022-11-16T01:36:25.059Z,29.57
2022-11-16T01:39:28.376Z,31.40
2022-11-16T01:42:33.617Z,29.73
2022-11-16T01:45:41.219Z,30.20
2022-11-16T01:48:44.568Z,30.10
2022-11-16T01:51:52.829Z,29.10
2022-11-16T01:54:56.690Z,28.80
2022-11-16T01:58:00.610Z,29.07
2022-11-16T02:01:03.848Z,29.90
2022-11-16T02:04:07.373Z,28.90
2022-11-16T02:07:23.267Z,28.40
2022-11-16T02:10:41.175Z,27.97
2022-11-16T02:13:53.859Z,28.70
2022-11-16T02:17:13.615Z,29.60
2022-11-16T02:20:45.622Z,28.43
2022-11-16T02:24:07.363Z,28.37
2022-11-16T02:27:47.439Z,28.67
2022-11-16T02:30:55.369Z,28.90
2022-11-16T02:34:00.890Z,27.63
2022-11-16T02:37:08.339Z,25.53
2022-11-16T02:40:17.064Z,27.00
2022-11-16T02:43:26.552Z,27.20
2022-11-16T02:46:39.396Z,26.90
2022-11-16T02:49:48.606Z,27.27
2022-11-16T02:52:51.794Z,28.40
2022-11-16T02:55:57.186Z,26.57
2022-11-16T02:59:01.067Z,25.67
2022-11-16T03:02:18.665Z,26.70
2022-11-16T03:05:32.284Z,27.73
2022-11-16T03:08:39.509Z,25.43
2022-11-16T03:12:03.714Z,26.80
2022-11-16T03:15:11.270Z,26.80
2022-11-16T03:18:18.116Z,24.67
2022-11-16T03:21:30.190Z,24.67
2022-11-16T03:24:33.712Z,26.20
2022-11-16T03:27:39.988Z,25.27
2022-11-16T03:30:47.002Z,24.10
2022-11-16T03:33:56.118Z,25.40
2022-11-16T03:37:01.620Z,25.43
2022-11-16T03:40:07.553Z,25.90
2022-11-16T03:43:11.539Z,26.00
2022-11-16T03:46:16.658Z,24.37
2022-11-16T03:49:24.210Z,25.47
2022-11-16T03:52:27.303Z,25.07
2022-11-16T03:55:30.367Z,25.60
2022-11-16T03:58:33.707Z,24.50
2022-11-16T04:01:41.769Z,23.93
2022-11-16T04:05:06.462Z,23.90
2022-11-16T04:08:33.603Z,24.30
2022-11-16T04:11:55.034Z,23.37
2022-11-16T04:15:15.770Z,23.93
2022-11-16T04:18:36.525Z,25.03
2022-11-16T04:22:02.362Z,22.30
2022-11-16T04:25:11.646Z,22.00
2022-11-16T04:28:16.306Z,22.50
2022-11-16T04:31:45.536Z,22.73
2022-11-16T04:35:06.161Z,23.97
2022-11-16T04:38:10.680Z,25.63
2022-11-16T04:41:29.083Z,25.63
2022-11-16T04:44:49.143Z,23.50
2022-11-16T04:47:53.240Z,24.53
2022-11-16T04:50:56.406Z,26.67
2022-11-16T04:54:01.221Z,26.20
2022-11-16T04:57:04.609Z,27.20
2022-11-16T05:00:09.326Z,25.63
2022-11-16T05:03:12.454Z,26.03
2022-11-16T05:06:15.769Z,27.20
2022-11-16T05:09:20.353Z,28.13
2022-11-16T05:12:27.275Z,27.30
2022-11-16T05:15:30.370Z,28.83
2022-11-16T05:18:34.779Z,28.07
2022-11-16T05:21:37.118Z,27.07
2022-11-16T05:24:41.635Z,25.93
2022-11-16T05:27:44.782Z,26.60
2022-11-16T05:30:47.916Z,24.57
2022-11-16T05:33:50.938Z,25.00
2022-11-16T05:36:54.650Z,24.23
2022-11-16T05:39:59.088Z,23.77
2022-11-16T05:43:02.411Z,22.80
2022-11-16T05:46:05.566Z,24.60
2022-11-16T05:49:09.392Z,22.80
2022-11-16T05:52:12.693Z,22.53
2022-11-16T05:55:17.394Z,22.73
2022-11-16T05:58:20.681Z,24.10
2022-11-16T06:01:23.928Z,24.50
2022-11-16T06:04:27.614Z,23.20
2022-11-16T06:07:30.869Z,24.00
2022-11-16T06:10:35.435Z,23.23
2022-11-16T06:13:38.888Z,24.13
2022-11-16T06:16:42.197Z,22.70
2022-11-16T06:19:45.255Z,23.30
2022-11-16T06:22:48.876Z,22.10
2022-11-16T06:25:56.053Z,22.07
2022-11-16T06:29:00.310Z,22.53
2022-11-16T06:32:03.380Z,22.87
2022-11-16T06:35:07.349Z,21.47
2022-11-16T06:38:11.244Z,20.77
2022-11-16T06:41:15.687Z,23.30
2022-11-16T06:44:18.712Z,21.17
2022-11-16T06:47:21.760Z,20.90
2022-11-16T06:50:25.244Z,21.10
2022-11-16T06:53:30.701Z,22.63
2022-11-16T06:56:36.550Z,19.80
2022-11-16T06:59:39.592Z,21.60
2022-11-16T07:02:42.684Z,20.17
2022-11-16T07:05:45.788Z,21.27
2022-11-16T07:08:48.913Z,20.33
2022-11-16T07:11:53.420Z,19.87
2022-11-16T07:14:56.609Z,20.80
2022-11-16T07:18:04.914Z,21.00
2022-11-16T07:21:08.436Z,22.20
2022-11-16T07:24:12.211Z,20.67
2022-11-16T07:27:16.685Z,21.00
2022-11-16T07:30:20.074Z,20.00
2022-11-16T07:33:23.505Z,20.13
2022-11-16T07:36:26.564Z,19.77
2022-11-16T07:39:29.917Z,20.90
2022-11-16T07:42:34.455Z,20.37
2022-11-16T07:45:37.463Z,19.40
2022-11-16T07:48:42.660Z,19.40
2022-11-16T07:51:46.373Z,20.40
2022-11-16T07:54:49.422Z,19.70
2022-11-16T07:57:54.117Z,18.80
2022-11-16T08:01:05.045Z,19.30
2022-11-16T08:04:08.131Z,20.50
2022-11-16T08:07:11.568Z,19.23
2022-11-16T08:10:14.892Z,18.40
2022-11-16T08:13:19.330Z,19.37
2022-11-16T08:16:23.726Z,18.00
2022-11-16T08:19:26.748Z,19.93
2022-11-16T08:22:30.435Z,19.30
2022-11-16T08:25:33.489Z,18.70
2022-11-16T08:28:38.828Z,17.40
2022-11-16T08:31:41.906Z,18.53
2022-11-16T08:34:45.147Z,18.47
2022-11-16T08:37:49.213Z,19.33
2022-11-16T08:40:52.303Z,18.57
2022-11-16T08:43:57.137Z,18.60
2022-11-16T08:47:00.267Z,18.47
2022-11-16T08:50:03.609Z,17.93
2022-11-16T08:53:06.699Z,18.77
2022-11-16T08:56:11.897Z,17.10
2022-11-16T08:59:18.673Z,17.70
2022-11-16T09:02:25.840Z,18.37
2022-11-16T09:05:29.212Z,18.30
2022-11-16T09:08:32.857Z,17.37
2022-11-16T09:11:36.221Z,17.60
2022-11-16T09:14:40.690Z,17.10
2022-11-16T09:17:43.972Z,17.63
2022-11-16T09:20:47.135Z,17.03
2022-11-16T09:23:50.982Z,17.17
2022-11-16T09:26:56.822Z,17.90
2022-11-16T09:30:01.276Z,18.30
2022-11-16T09:33:04.441Z,18.13
2022-11-16T09:36:10.133Z,17.27
2022-11-16T09:39:30.165Z,17.20
2022-11-16T09:42:52.388Z,17.43
2022-11-16T09:46:06.743Z,18.60
2022-11-16T09:49:17.547Z,17.60
2022-11-16T09:52:30.379Z,17.30
2022-11-16T09:55:38.358Z,17.27
2022-11-16T09:58:47.304Z,16.50
2022-11-16T10:01:57.577Z,16.60
2022-11-16T10:05:05.369Z,17.27
2022-11-16T10:08:15.921Z,17.50
2022-11-16T10:11:44.133Z,16.30
2022-11-16T10:15:23.660Z,15.87
2022-11-16T10:18:49.832Z,16.10
2022-11-16T10:22:02.163Z,16.33
2022-11-16T10:25:13.490Z,15.57
2022-11-16T10:28:37.210Z,15.63
2022-11-16T10:32:09.628Z,15.80
2022-11-16T10:35:20.026Z,15.77
2022-11-16T10:38:26.253Z,15.83
2022-11-16T10:41:34.573Z,16.23
2022-11-16T10:44:42.064Z,15.63
2022-11-16T10:47:50.836Z,16.00
2022-11-16T10:50:56.063Z,15.03
2022-11-16T10:53:59.307Z,15.00
2022-11-16T10:57:06.314Z,15.07
2022-11-16T11:00:21.061Z,15.43
2022-11-16T11:03:32.665Z,15.07
2022-11-16T11:06:40.231Z,15.30
2022-11-16T11:09:44.392Z,15.00
2022-11-16T11:13:03.900Z,15.50
2022-11-16T11:16:19.088Z,15.53
2022-11-16T11:19:27.940Z,15.13
2022-11-16T11:22:33.725Z,15.40
2022-11-16T11:25:41.231Z,14.90
2022-11-16T11:28:51.104Z,15.57
2022-11-16T11:31:59.244Z,14.10
2022-11-16T11:35:03.672Z,14.60
2022-11-16T11:38:08.664Z,14.03
2022-11-16T11:41:20.241Z,14.67
2022-11-16T11:44:37.490Z,15.00
2022-11-16T11:47:58.434Z,14.67
2022-11-16T11:51:12.175Z,13.70
2022-11-16T11:54:24.228Z,14.50
2022-11-16T11:57:27.388Z,13.93
2022-11-16T12:00:40.783Z,13.67
2022-11-16T12:03:59.212Z,14.67
2022-11-16T12:07:13.707Z,14.20
2022-11-16T12:10:28.949Z,13.97
2022-11-16T12:13:57.982Z,13.70
2022-11-16T12:17:08.615Z,14.27
2022-11-16T12:20:29.620Z,14.00
2022-11-16T12:23:58.808Z,12.90
2022-11-16T12:27:15.711Z,13.33
2022-11-16T12:30:21.310Z,13.43
2022-11-16T12:33:35.251Z,13.30
2022-11-16T12:36:49.116Z,13.23
2022-11-16T12:40:09.758Z,13.33
2022-11-16T12:43:22.675Z,13.30
2022-11-16T12:46:38.628Z,12.63
2022-11-16T12:50:05.882Z,12.77
2022-11-16T12:53:25.627Z,13.37
2022-11-16T12:56:47.470Z,13.47
2022-11-16T13:00:07.925Z,12.83
2022-11-16T13:03:19.085Z,13.30
2022-11-16T13:06:27.886Z,13.17
2022-11-16T13:09:34.230Z,12.70
2022-11-16T13:12:39.274Z,12.57
2022-11-16T13:15:46.429Z,13.00
2022-11-16T13:18:50.157Z,13.53
2022-11-16T13:21:59.936Z,12.97
2022-11-16T13:25:15.946Z,11.80
2022-11-16T13:28:30.619Z,12.87
2022-11-16T13:31:45.002Z,12.60
2022-11-16T13:34:48.888Z,12.70
2022-11-16T13:37:52.873Z,12.00
2022-11-16T13:41:29.177Z,11.77
2022-11-16T13:44:32.710Z,11.33
2022-11-16T13:47:38.928Z,12.13
2022-11-16T13:50:49.939Z,11.90
2022-11-16T13:57:25.383Z,12.07
2022-11-16T14:00:33.452Z,11.87
2022-11-16T14:03:42.275Z,12.20
2022-11-16T14:07:00.606Z,12.60
2022-11-16T14:10:07.970Z,12.00
2022-11-16T14:13:39.712Z,12.03
2022-11-16T14:16:51.225Z,11.03
2022-11-16T14:19:57.448Z,11.73
2022-11-16T14:23:22.471Z,12.47
2022-11-16T14:26:38.571Z,11.93
2022-11-16T14:29:57.435Z,12.00
2022-11-16T14:33:00.656Z,11.37
2022-11-16T14:36:08.996Z,11.87
2022-11-16T14:39:31.192Z,11.43
2022-11-16T14:42:54.715Z,11.30
2022-11-16T14:46:08.716Z,11.50
2022-11-16T14:49:16.316Z,11.40
2022-11-16T14:52:28.214Z,11.27
2022-11-16T14:55:31.345Z,11.83
2022-11-16T14:58:35.902Z,10.57
2022-11-16T15:01:41.145Z,11.53
2022-11-16T15:04:44.700Z,11.07
2022-11-16T15:07:52.607Z,10.90
2022-11-16T15:10:55.857Z,11.50
2022-11-16T15:13:59.532Z,11.10
2022-11-16T15:17:02.645Z,11.60
2022-11-16T15:20:17.470Z,11.20
2022-11-16T15:23:24.964Z,10.67
2022-11-16T15:26:32.518Z,10.77
2022-11-16T15:29:35.956Z,10.87
2022-11-16T15:32:43.463Z,11.60
2022-11-16T15:35:47.391Z,11.33
2022-11-16T15:38:54.718Z,11.60
2022-11-16T15:42:03.428Z,10.97
2022-11-16T15:45:15.508Z,10.83
2022-11-16T15:48:21.455Z,10.80
2022-11-16T15:51:25.095Z,11.30
2022-11-16T15:54:31.166Z,11.27
2022-11-16T15:57:34.290Z,10.70
2022-11-16T16:00:38.564Z,10.70
2022-11-16T16:03:51.893Z,10.33
2022-11-16T16:06:57.235Z,11.70
2022-11-16T16:10:23.385Z,10.67
2022-11-16T16:13:31.016Z,11.27
2022-11-16T16:16:36.347Z,10.70
2022-11-16T16:19:42.566Z,10.87
2022-11-16T16:22:46.264Z,10.80
2022-11-16T16:25:50.981Z,10.97
2022-11-16T16:28:54.093Z,10.13
2022-11-16T16:31:57.513Z,10.90
2022-11-16T16:35:02.404Z,11.00
2022-11-16T16:38:14.918Z,19.00
2022-11-16T16:41:24.455Z,17.33
2022-11-16T16:44:27.940Z,17.83
2022-11-16T16:47:32.451Z,20.20
2022-11-16T16:50:36.300Z,19.10
2022-11-16T16:53:39.440Z,20.10
2022-11-16T16:56:44.035Z,19.90
2022-11-16T16:59:48.701Z,20.27
2022-11-16T17:02:53.397Z,19.80
2022-11-16T17:06:01.216Z,19.40
2022-11-16T17:09:04.691Z,18.60
2022-11-16T17:12:11.304Z,18.33
2022-11-16T17:15:19.152Z,18.27
2022-11-16T17:18:24.457Z,19.60
2022-11-16T17:21:28.193Z,17.80
2022-11-16T17:24:31.396Z,18.50
2022-11-16T17:27:36.110Z,19.03
2022-11-16T17:30:39.528Z,18.57
2022-11-16T17:33:45.679Z,18.40
2022-11-16T17:36:49.030Z,17.33
2022-11-16T17:39:52.216Z,18.50
2022-11-16T17:42:56.816Z,17.77
2022-11-16T17:46:04.422Z,17.90
2022-11-16T17:49:07.923Z,17.27
2022-11-16T17:52:12.947Z,22.10
2022-11-16T17:55:16.643Z,22.50
2022-11-16T17:58:23.917Z,20.57
2022-11-16T18:01:28.733Z,21.70
2022-11-16T18:04:31.879Z,23.20
2022-11-16T18:07:36.322Z,19.93
2022-11-16T18:10:39.975Z,21.17
2022-11-16T18:13:44.848Z,19.60
2022-11-16T18:16:48.087Z,19.83
2022-11-16T18:19:51.191Z,19.97
2022-11-16T18:22:54.507Z,18.93
2022-11-16T18:25:58.696Z,19.93
2022-11-16T18:29:03.480Z,19.23
2022-11-16T18:32:08.369Z,21.60
2022-11-16T18:35:11.819Z,23.07
2022-11-16T18:38:14.945Z,24.77
2022-11-16T18:41:22.031Z,26.33
2022-11-16T18:44:26.539Z,25.90
2022-11-16T18:47:29.578Z,25.50
2022-11-16T18:50:32.682Z,25.37
2022-11-16T18:53:36.022Z,25.47
2022-11-16T18:56:39.570Z,25.33
2022-11-16T18:59:44.203Z,24.57
2022-11-16T19:02:47.302Z,23.20
2022-11-16T19:05:58.742Z,24.40
2022-11-16T19:09:04.004Z,23.77
2022-11-16T19:12:07.455Z,24.70
2022-11-16T19:15:12.428Z,23.77
2022-11-16T19:18:21.117Z,22.83
2022-11-16T19:21:24.881Z,24.00
2022-11-16T19:24:27.996Z,23.50
2022-11-16T19:27:32.230Z,23.67
2022-11-16T19:30:36.729Z,31.00
2022-11-16T19:33:40.616Z,31.20
2022-11-16T19:36:43.716Z,32.80
2022-11-16T19:39:48.129Z,36.10
2022-11-16T19:42:53.543Z,34.10
2022-11-16T19:46:04.032Z,33.90
2022-11-16T19:49:08.690Z,35.07
2022-11-16T19:52:12.304Z,35.33
2022-11-16T19:55:15.664Z,33.43
2022-11-16T19:58:18.814Z,33.97
2022-11-16T20:01:25.565Z,34.00
2022-11-16T20:04:32.871Z,34.73
2022-11-16T20:07:38.884Z,34.40
2022-11-16T20:10:42.011Z,32.83
2022-11-16T20:13:45.944Z,36.73
2022-11-16T20:16:50.927Z,38.80
2022-11-16T20:19:54.091Z,40.30
2022-11-16T20:22:57.671Z,42.83
2022-11-16T20:26:00.792Z,45.07
2022-11-16T20:29:05.734Z,43.30
2022-11-16T20:32:10.264Z,44.80
2022-11-16T20:35:18.816Z,44.23
2022-11-16T20:38:22.262Z,46.03
2022-11-16T20:41:27.334Z,46.70
2022-11-16T20:44:32.190Z,44.40
2022-11-16T20:47:36.646Z,48.87
2022-11-16T20:50:40.777Z,47.93
2022-11-16T20:53:44.461Z,48.97
2022-11-16T20:56:54.005Z,51.60
2022-11-16T20:59:57.151Z,49.60
2022-11-16T21:03:01.911Z,52.03
2022-11-16T21:06:08.497Z,52.00
2022-11-16T21:09:13.155Z,55.27
2022-11-16T21:12:35.107Z,51.97
2022-11-16T21:15:40.974Z,53.50
2022-11-16T21:18:45.535Z,54.00
2022-11-16T21:21:48.940Z,54.97
2022-11-16T21:24:51.966Z,55.67
2022-11-16T21:27:57.153Z,56.80
2022-11-16T21:31:02.316Z,56.50
2022-11-16T21:34:07.582Z,58.67
2022-11-16T21:37:10.910Z,60.63
2022-11-16T21:40:14.464Z,59.17
2022-11-16T21:43:18.856Z,60.77
2022-11-16T21:46:24.812Z,61.60
2022-11-16T21:49:29.580Z,60.60
2022-11-16T21:52:32.813Z,64.60
2022-11-16T21:55:36.232Z,61.40
2022-11-16T21:58:40.328Z,60.73
2022-11-16T22:01:57.238Z,63.20
2022-11-16T22:05:19.344Z,61.17
2022-11-16T22:08:22.869Z,60.70
2022-11-16T22:11:26.082Z,61.53
2022-11-16T22:14:29.197Z,59.17
2022-11-16T22:17:32.337Z,62.67
2022-11-16T22:20:36.949Z,60.50
2022-11-16T22:23:40.463Z,61.13
2022-11-16T22:26:44.614Z,60.23
2022-11-16T22:29:47.766Z,59.90
2022-11-16T22:32:50.884Z,57.40
2022-11-16T22:35:56.574Z,59.10
2022-11-16T22:38:59.587Z,60.57
2022-11-16T22:42:02.661Z,58.00
2022-11-16T22:45:06.510Z,58.20
2022-11-16T22:48:09.598Z,59.10
2022-11-16T22:51:20.496Z,57.60
2022-11-16T22:54:28.437Z,56.27
2022-11-16T22:57:32.097Z,56.87
2022-11-16T23:00:41.803Z,57.00
2022-11-16T23:03:45.426Z,56.40
2022-11-16T23:06:50.004Z,56.07
2022-11-16T23:09:53.177Z,54.77
2022-11-16T23:13:14.127Z,54.47
2022-11-16T23:16:17.273Z,55.03
2022-11-16T23:19:39.729Z,55.10
2022-11-16T23:23:01.440Z,52.13
2022-11-16T23:26:30.231Z,54.57
2022-11-16T23:29:33.608Z,54.50
2022-11-16T23:32:36.630Z,52.93
2022-11-16T23:35:40.126Z,53.90
2022-11-16T23:38:45.669Z,52.60
2022-11-16T23:42:05.985Z,50.33
2022-11-16T23:45:09.600Z,51.73
2022-11-16T23:48:15.312Z,51.43
2022-11-16T23:51:19.439Z,50.90
2022-11-16T23:54:24.040Z,52.67
2022-11-16T23:57:27.159Z,50.17
